sensor_id;sensor_type;location;lat;lon;timestamp;P1;durP1;ratioP1;P2;durP2;ratioP2
75698;SDS011;64313;51.018;13.742;2023-03-01T00:00:53;24.38;;;13.25;;
75698;SDS011;64313;51.018;13.742;2023-03-01T00:03:18;28.98;;;14.30;;
75698;SDS011;64313;51.018;13.742;2023-03-01T00:05:44;25.58;;;13.05;;
75698;SDS011;64313;51.018;13.742;2023-03-01T00:08:10;24.83;;;12.82;;
75698;SDS011;64313;51.018;13.742;2023-03-01T00:10:36;25.27;;;13.40;;
75698;SDS011;64313;51.018;13.742;2023-03-01T00:13:01;23.30;;;11.82;;
75698;SDS011;64313;51.018;13.742;2023-03-01T00:15:26;24.02;;;12.60;;
75698;SDS011;64313;51.018;13.742;2023-03-01T00:17:52;23.63;;;12.00;;
75698;SDS011;64313;51.018;13.742;2023-03-01T00:20:17;23.83;;;11.52;;
75698;SDS011;64313;51.018;13.742;2023-03-01T00:22:42;23.85;;;12.57;;
75698;SDS011;64313;51.018;13.742;2023-03-01T00:25:08;24.48;;;11.68;;
75698;SDS011;64313;51.018;13.742;2023-03-01T00:27:34;24.27;;;12.10;;
75698;SDS011;64313;51.018;13.742;2023-03-01T00:29:59;24.10;;;11.60;;
75698;SDS011;64313;51.018;13.742;2023-03-01T00:32:24;22.98;;;11.38;;
75698;SDS011;64313;51.018;13.742;2023-03-01T00:34:50;22.77;;;12.10;;
75698;SDS011;64313;51.018;13.742;2023-03-01T00:37:21;23.33;;;11.00;;
75698;SDS011;64313;51.018;13.742;2023-03-01T00:39:46;24.90;;;11.65;;
75698;SDS011;64313;51.018;13.742;2023-03-01T00:42:14;20.70;;;10.70;;
75698;SDS011;64313;51.018;13.742;2023-03-01T00:44:39;21.48;;;11.23;;
75698;SDS011;64313;51.018;13.742;2023-03-01T00:47:05;20.67;;;10.43;;
75698;SDS011;64313;51.018;13.742;2023-03-01T00:49:30;19.70;;;10.25;;
75698;SDS011;64313;51.018;13.742;2023-03-01T00:51:56;22.33;;;10.90;;
75698;SDS011;64313;51.018;13.742;2023-03-01T00:54:22;22.35;;;10.77;;
75698;SDS011;64313;51.018;13.742;2023-03-01T00:56:48;22.35;;;11.00;;
75698;SDS011;64313;51.018;13.742;2023-03-01T00:59:13;19.98;;;10.20;;
75698;SDS011;64313;51.018;13.742;2023-03-01T01:01:39;19.83;;;10.18;;
75698;SDS011;64313;51.018;13.742;2023-03-01T01:04:05;23.15;;;11.68;;
75698;SDS011;64313;51.018;13.742;2023-03-01T01:06:33;20.50;;;11.43;;
75698;SDS011;64313;51.018;13.742;2023-03-01T01:09:04;22.35;;;10.63;;
75698;SDS011;64313;51.018;13.742;2023-03-01T01:11:32;20.30;;;10.57;;
75698;SDS011;64313;51.018;13.742;2023-03-01T01:13:58;23.42;;;11.30;;
75698;SDS011;64313;51.018;13.742;2023-03-01T01:18:50;22.45;;;10.02;;
75698;SDS011;64313;51.018;13.742;2023-03-01T01:21:17;21.75;;;10.40;;
75698;SDS011;64313;51.018;13.742;2023-03-01T01:23:44;21.30;;;11.48;;
75698;SDS011;64313;51.018;13.742;2023-03-01T01:26:12;22.13;;;10.90;;
75698;SDS011;64313;51.018;13.742;2023-03-01T01:28:39;22.55;;;11.40;;
75698;SDS011;64313;51.018;13.742;2023-03-01T01:31:05;22.38;;;11.13;;
75698;SDS011;64313;51.018;13.742;2023-03-01T01:33:31;22.85;;;11.77;;
75698;SDS011;64313;51.018;13.742;2023-03-01T01:35:57;21.52;;;11.63;;
75698;SDS011;64313;51.018;13.742;2023-03-01T01:38:22;24.02;;;12.98;;
75698;SDS011;64313;51.018;13.742;2023-03-01T01:40:48;23.65;;;11.82;;
75698;SDS011;64313;51.018;13.742;2023-03-01T01:43:28;23.40;;;12.40;;
75698;SDS011;64313;51.018;13.742;2023-03-01T01:45:59;23.05;;;11.02;;
75698;SDS011;64313;51.018;13.742;2023-03-01T01:48:32;23.52;;;10.68;;
75698;SDS011;64313;51.018;13.742;2023-03-01T01:51:05;26.52;;;12.50;;
75698;SDS011;64313;51.018;13.742;2023-03-01T01:53:34;26.48;;;13.32;;
75698;SDS011;64313;51.018;13.742;2023-03-01T01:56:01;24.70;;;12.50;;
75698;SDS011;64313;51.018;13.742;2023-03-01T01:58:28;24.65;;;12.45;;
75698;SDS011;64313;51.018;13.742;2023-03-01T02:00:55;23.77;;;11.68;;
75698;SDS011;64313;51.018;13.742;2023-03-01T02:03:31;21.40;;;11.07;;
75698;SDS011;64313;51.018;13.742;2023-03-01T02:09:04;23.17;;;11.43;;
75698;SDS011;64313;51.018;13.742;2023-03-01T02:11:34;21.60;;;10.05;;
75698;SDS011;64313;51.018;13.742;2023-03-01T02:14:02;21.15;;;10.88;;
75698;SDS011;64313;51.018;13.742;2023-03-01T02:16:28;23.27;;;10.90;;
75698;SDS011;64313;51.018;13.742;2023-03-01T02:18:54;22.73;;;10.25;;
75698;SDS011;64313;51.018;13.742;2023-03-01T02:21:29;19.73;;;10.15;;
75698;SDS011;64313;51.018;13.742;2023-03-01T02:26:48;22.90;;;10.57;;
75698;SDS011;64313;51.018;13.742;2023-03-01T02:29:16;21.85;;;10.77;;
75698;SDS011;64313;51.018;13.742;2023-03-01T02:31:41;21.73;;;10.50;;
75698;SDS011;64313;51.018;13.742;2023-03-01T02:34:09;22.27;;;10.30;;
75698;SDS011;64313;51.018;13.742;2023-03-01T02:37:00;20.52;;;11.18;;
75698;SDS011;64313;51.018;13.742;2023-03-01T02:39:32;24.45;;;11.07;;
75698;SDS011;64313;51.018;13.742;2023-03-01T02:42:07;20.10;;;10.35;;
75698;SDS011;64313;51.018;13.742;2023-03-01T02:44:37;21.35;;;10.65;;
75698;SDS011;64313;51.018;13.742;2023-03-01T02:47:03;20.65;;;10.32;;
75698;SDS011;64313;51.018;13.742;2023-03-01T02:49:31;20.60;;;10.68;;
75698;SDS011;64313;51.018;13.742;2023-03-01T02:54:57;21.30;;;9.98;;
75698;SDS011;64313;51.018;13.742;2023-03-01T02:57:23;22.77;;;10.90;;
75698;SDS011;64313;51.018;13.742;2023-03-01T02:59:52;20.35;;;10.18;;
75698;SDS011;64313;51.018;13.742;2023-03-01T03:02:22;23.10;;;11.27;;
75698;SDS011;64313;51.018;13.742;2023-03-01T03:05:09;21.85;;;10.57;;
75698;SDS011;64313;51.018;13.742;2023-03-01T03:07:39;22.45;;;10.40;;
75698;SDS011;64313;51.018;13.742;2023-03-01T03:10:07;20.23;;;9.60;;
75698;SDS011;64313;51.018;13.742;2023-03-01T03:12:37;20.05;;;10.23;;
75698;SDS011;64313;51.018;13.742;2023-03-01T03:15:04;20.65;;;10.15;;
75698;SDS011;64313;51.018;13.742;2023-03-01T03:17:36;20.48;;;10.00;;
75698;SDS011;64313;51.018;13.742;2023-03-01T03:20:03;21.58;;;10.18;;
75698;SDS011;64313;51.018;13.742;2023-03-01T03:22:31;22.50;;;11.50;;
75698;SDS011;64313;51.018;13.742;2023-03-01T03:24:58;19.52;;;10.43;;
75698;SDS011;64313;51.018;13.742;2023-03-01T03:27:24;21.73;;;11.23;;
75698;SDS011;64313;51.018;13.742;2023-03-01T03:29:49;22.08;;;11.18;;
75698;SDS011;64313;51.018;13.742;2023-03-01T03:32:15;21.20;;;11.20;;
75698;SDS011;64313;51.018;13.742;2023-03-01T03:34:40;22.20;;;10.27;;
75698;SDS011;64313;51.018;13.742;2023-03-01T03:37:05;22.98;;;10.35;;
75698;SDS011;64313;51.018;13.742;2023-03-01T03:39:50;20.23;;;9.60;;
75698;SDS011;64313;51.018;13.742;2023-03-01T03:42:19;23.50;;;10.48;;
75698;SDS011;64313;51.018;13.742;2023-03-01T03:44:45;20.73;;;10.38;;
75698;SDS011;64313;51.018;13.742;2023-03-01T03:47:10;23.45;;;10.57;;
75698;SDS011;64313;51.018;13.742;2023-03-01T03:49:36;19.98;;;9.93;;
75698;SDS011;64313;51.018;13.742;2023-03-01T03:52:01;23.33;;;10.90;;
75698;SDS011;64313;51.018;13.742;2023-03-01T03:54:26;21.45;;;10.52;;
75698;SDS011;64313;51.018;13.742;2023-03-01T03:56:52;20.95;;;10.43;;
75698;SDS011;64313;51.018;13.742;2023-03-01T03:59:17;21.95;;;10.65;;
75698;SDS011;64313;51.018;13.742;2023-03-01T04:01:42;21.25;;;10.35;;
75698;SDS011;64313;51.018;13.742;2023-03-01T04:04:09;20.17;;;10.00;;
75698;SDS011;64313;51.018;13.742;2023-03-01T04:06:34;18.77;;;9.77;;
75698;SDS011;64313;51.018;13.742;2023-03-01T04:09:00;21.38;;;9.95;;
75698;SDS011;64313;51.018;13.742;2023-03-01T04:11:27;22.30;;;10.73;;
75698;SDS011;64313;51.018;13.742;2023-03-01T04:13:54;19.17;;;9.18;;
75698;SDS011;64313;51.018;13.742;2023-03-01T04:16:21;24.75;;;10.77;;
75698;SDS011;64313;51.018;13.742;2023-03-01T04:18:47;19.02;;;9.70;;
75698;SDS011;64313;51.018;13.742;2023-03-01T04:21:12;22.30;;;10.68;;
75698;SDS011;64313;51.018;13.742;2023-03-01T04:23:39;20.33;;;10.27;;
75698;SDS011;64313;51.018;13.742;2023-03-01T04:26:06;19.92;;;10.57;;
75698;SDS011;64313;51.018;13.742;2023-03-01T04:28:49;20.27;;;9.73;;
75698;SDS011;64313;51.018;13.742;2023-03-01T04:31:16;20.67;;;11.07;;
75698;SDS011;64313;51.018;13.742;2023-03-01T04:36:13;21.27;;;9.75;;
75698;SDS011;64313;51.018;13.742;2023-03-01T04:38:40;20.58;;;10.07;;
75698;SDS011;64313;51.018;13.742;2023-03-01T04:41:08;22.50;;;10.32;;
75698;SDS011;64313;51.018;13.742;2023-03-01T04:43:34;21.88;;;10.68;;
75698;SDS011;64313;51.018;13.742;2023-03-01T04:46:04;22.42;;;9.70;;
75698;SDS011;64313;51.018;13.742;2023-03-01T04:48:37;20.40;;;10.05;;
75698;SDS011;64313;51.018;13.742;2023-03-01T04:51:04;22.02;;;9.50;;
75698;SDS011;64313;51.018;13.742;2023-03-01T04:53:31;19.63;;;9.45;;
75698;SDS011;64313;51.018;13.742;2023-03-01T04:55:57;20.90;;;10.32;;
75698;SDS011;64313;51.018;13.742;2023-03-01T04:58:23;21.13;;;9.68;;
75698;SDS011;64313;51.018;13.742;2023-03-01T05:00:49;20.83;;;9.52;;
75698;SDS011;64313;51.018;13.742;2023-03-01T05:03:15;24.55;;;10.30;;
75698;SDS011;64313;51.018;13.742;2023-03-01T05:05:43;22.50;;;10.40;;
75698;SDS011;64313;51.018;13.742;2023-03-01T05:08:09;20.58;;;10.40;;
75698;SDS011;64313;51.018;13.742;2023-03-01T05:10:42;18.88;;;9.90;;
75698;SDS011;64313;51.018;13.742;2023-03-01T05:13:18;21.33;;;10.15;;
75698;SDS011;64313;51.018;13.742;2023-03-01T05:15:57;20.20;;;9.68;;
75698;SDS011;64313;51.018;13.742;2023-03-01T05:18:25;24.17;;;10.25;;
75698;SDS011;64313;51.018;13.742;2023-03-01T05:20:52;21.42;;;9.98;;
75698;SDS011;64313;51.018;13.742;2023-03-01T05:23:21;19.77;;;9.90;;
75698;SDS011;64313;51.018;13.742;2023-03-01T05:25:47;23.08;;;10.90;;
75698;SDS011;64313;51.018;13.742;2023-03-01T05:28:12;22.90;;;9.90;;
75698;SDS011;64313;51.018;13.742;2023-03-01T05:30:38;19.60;;;9.68;;
75698;SDS011;64313;51.018;13.742;2023-03-01T05:33:04;23.80;;;11.02;;
75698;SDS011;64313;51.018;13.742;2023-03-01T05:35:31;19.35;;;10.15;;
75698;SDS011;64313;51.018;13.742;2023-03-01T05:37:57;24.58;;;11.00;;
75698;SDS011;64313;51.018;13.742;2023-03-01T05:40:23;19.83;;;9.93;;
75698;SDS011;64313;51.018;13.742;2023-03-01T05:42:52;21.20;;;10.23;;
75698;SDS011;64313;51.018;13.742;2023-03-01T05:45:19;22.13;;;10.27;;
75698;SDS011;64313;51.018;13.742;2023-03-01T05:47:46;24.13;;;11.18;;
75698;SDS011;64313;51.018;13.742;2023-03-01T05:50:13;21.17;;;10.63;;
75698;SDS011;64313;51.018;13.742;2023-03-01T05:52:39;19.85;;;9.63;;
75698;SDS011;64313;51.018;13.742;2023-03-01T05:55:05;22.52;;;9.65;;
75698;SDS011;64313;51.018;13.742;2023-03-01T05:57:31;24.50;;;10.95;;
75698;SDS011;64313;51.018;13.742;2023-03-01T05:59:56;25.02;;;11.10;;
75698;SDS011;64313;51.018;13.742;2023-03-01T06:02:21;22.38;;;10.23;;
75698;SDS011;64313;51.018;13.742;2023-03-01T06:04:47;22.77;;;10.65;;
75698;SDS011;64313;51.018;13.742;2023-03-01T06:07:12;21.75;;;11.00;;
75698;SDS011;64313;51.018;13.742;2023-03-01T06:09:37;22.35;;;10.40;;
75698;SDS011;64313;51.018;13.742;2023-03-01T06:12:03;26.02;;;10.50;;
75698;SDS011;64313;51.018;13.742;2023-03-01T06:14:28;24.40;;;10.93;;
75698;SDS011;64313;51.018;13.742;2023-03-01T06:16:54;25.80;;;10.70;;
75698;SDS011;64313;51.018;13.742;2023-03-01T06:19:19;23.27;;;10.80;;
75698;SDS011;64313;51.018;13.742;2023-03-01T06:21:44;22.80;;;11.38;;
75698;SDS011;64313;51.018;13.742;2023-03-01T06:24:10;25.73;;;11.18;;
75698;SDS011;64313;51.018;13.742;2023-03-01T06:26:35;24.05;;;11.15;;
75698;SDS011;64313;51.018;13.742;2023-03-01T06:29:00;20.52;;;10.65;;
75698;SDS011;64313;51.018;13.742;2023-03-01T06:31:26;22.50;;;11.40;;
75698;SDS011;64313;51.018;13.742;2023-03-01T06:33:51;24.60;;;11.13;;
75698;SDS011;64313;51.018;13.742;2023-03-01T06:36:16;24.00;;;11.48;;
75698;SDS011;64313;51.018;13.742;2023-03-01T06:38:43;24.77;;;11.40;;
75698;SDS011;64313;51.018;13.742;2023-03-01T06:41:09;26.58;;;11.80;;
75698;SDS011;64313;51.018;13.742;2023-03-01T06:43:34;22.67;;;10.50;;
75698;SDS011;64313;51.018;13.742;2023-03-01T06:46:00;25.63;;;11.50;;
75698;SDS011;64313;51.018;13.742;2023-03-01T06:48:28;25.67;;;11.68;;
75698;SDS011;64313;51.018;13.742;2023-03-01T06:50:53;24.23;;;11.65;;
75698;SDS011;64313;51.018;13.742;2023-03-01T06:53:18;40.67;;;18.02;;
75698;SDS011;64313;51.018;13.742;2023-03-01T06:55:44;42.78;;;18.55;;
75698;SDS011;64313;51.018;13.742;2023-03-01T06:58:09;40.80;;;18.63;;
75698;SDS011;64313;51.018;13.742;2023-03-01T07:00:35;38.20;;;16.98;;
75698;SDS011;64313;51.018;13.742;2023-03-01T07:03:01;37.58;;;16.77;;
75698;SDS011;64313;51.018;13.742;2023-03-01T07:05:27;40.00;;;17.98;;
75698;SDS011;64313;51.018;13.742;2023-03-01T07:07:53;30.23;;;14.55;;
75698;SDS011;64313;51.018;13.742;2023-03-01T07:10:20;33.53;;;14.95;;
75698;SDS011;64313;51.018;13.742;2023-03-01T07:12:45;37.58;;;16.95;;
75698;SDS011;64313;51.018;13.742;2023-03-01T07:15:11;34.60;;;16.17;;
75698;SDS011;64313;51.018;13.742;2023-03-01T07:17:37;36.80;;;16.35;;
75698;SDS011;64313;51.018;13.742;2023-03-01T07:20:02;33.50;;;15.95;;
75698;SDS011;64313;51.018;13.742;2023-03-01T07:22:28;33.38;;;14.38;;
75698;SDS011;64313;51.018;13.742;2023-03-01T07:24:53;34.25;;;15.10;;
75698;SDS011;64313;51.018;13.742;2023-03-01T07:27:18;35.22;;;15.45;;
75698;SDS011;64313;51.018;13.742;2023-03-01T07:29:44;34.13;;;15.88;;
75698;SDS011;64313;51.018;13.742;2023-03-01T07:32:12;30.63;;;15.07;;
75698;SDS011;64313;51.018;13.742;2023-03-01T07:34:38;31.52;;;14.38;;
75698;SDS011;64313;51.018;13.742;2023-03-01T07:37:04;31.38;;;14.27;;
75698;SDS011;64313;51.018;13.742;2023-03-01T07:39:29;27.40;;;13.93;;
75698;SDS011;64313;51.018;13.742;2023-03-01T07:41:56;29.67;;;14.13;;
75698;SDS011;64313;51.018;13.742;2023-03-01T07:44:22;26.80;;;13.82;;
75698;SDS011;64313;51.018;13.742;2023-03-01T07:46:47;29.10;;;13.88;;
75698;SDS011;64313;51.018;13.742;2023-03-01T07:49:12;28.73;;;14.35;;
75698;SDS011;64313;51.018;13.742;2023-03-01T07:51:38;26.98;;;13.48;;
75698;SDS011;64313;51.018;13.742;2023-03-01T07:54:03;30.30;;;14.65;;
75698;SDS011;64313;51.018;13.742;2023-03-01T07:56:29;32.65;;;14.73;;
75698;SDS011;64313;51.018;13.742;2023-03-01T07:58:54;33.35;;;15.02;;
75698;SDS011;64313;51.018;13.742;2023-03-01T08:01:20;31.60;;;13.60;;
75698;SDS011;64313;51.018;13.742;2023-03-01T08:03:46;30.95;;;15.50;;
75698;SDS011;64313;51.018;13.742;2023-03-01T08:06:13;25.13;;;13.13;;
75698;SDS011;64313;51.018;13.742;2023-03-01T08:08:40;30.30;;;13.88;;
75698;SDS011;64313;51.018;13.742;2023-03-01T08:11:06;28.60;;;13.60;;
75698;SDS011;64313;51.018;13.742;2023-03-01T08:13:34;25.98;;;12.52;;
75698;SDS011;64313;51.018;13.742;2023-03-01T08:16:00;24.60;;;12.43;;
75698;SDS011;64313;51.018;13.742;2023-03-01T08:18:27;26.15;;;13.45;;
75698;SDS011;64313;51.018;13.742;2023-03-01T08:20:52;26.08;;;13.35;;
75698;SDS011;64313;51.018;13.742;2023-03-01T08:23:17;26.42;;;12.95;;
75698;SDS011;64313;51.018;13.742;2023-03-01T08:25:43;27.98;;;13.15;;
75698;SDS011;64313;51.018;13.742;2023-03-01T08:28:08;24.00;;;13.05;;
75698;SDS011;64313;51.018;13.742;2023-03-01T08:30:34;26.75;;;13.27;;
75698;SDS011;64313;51.018;13.742;2023-03-01T08:32:59;24.40;;;12.85;;
75698;SDS011;64313;51.018;13.742;2023-03-01T08:35:25;25.23;;;12.55;;
75698;SDS011;64313;51.018;13.742;2023-03-01T08:37:50;26.35;;;12.43;;
75698;SDS011;64313;51.018;13.742;2023-03-01T08:40:15;25.67;;;13.23;;
75698;SDS011;64313;51.018;13.742;2023-03-01T08:42:41;28.13;;;12.77;;
75698;SDS011;64313;51.018;13.742;2023-03-01T08:45:08;24.90;;;13.40;;
75698;SDS011;64313;51.018;13.742;2023-03-01T08:47:35;26.13;;;12.77;;
75698;SDS011;64313;51.018;13.742;2023-03-01T08:50:01;24.75;;;12.50;;
75698;SDS011;64313;51.018;13.742;2023-03-01T08:52:28;22.58;;;11.68;;
75698;SDS011;64313;51.018;13.742;2023-03-01T08:54:55;26.00;;;12.32;;
75698;SDS011;64313;51.018;13.742;2023-03-01T08:57:20;23.80;;;11.70;;
75698;SDS011;64313;51.018;13.742;2023-03-01T08:59:45;26.30;;;12.93;;
75698;SDS011;64313;51.018;13.742;2023-03-01T09:02:13;28.35;;;13.40;;
75698;SDS011;64313;51.018;13.742;2023-03-01T09:04:40;23.73;;;11.82;;
75698;SDS011;64313;51.018;13.742;2023-03-01T09:07:06;21.23;;;11.18;;
75698;SDS011;64313;51.018;13.742;2023-03-01T09:09:32;26.23;;;12.75;;
75698;SDS011;64313;51.018;13.742;2023-03-01T09:11:57;24.48;;;11.90;;
75698;SDS011;64313;51.018;13.742;2023-03-01T09:14:22;22.48;;;12.32;;
75698;SDS011;64313;51.018;13.742;2023-03-01T09:16:48;22.05;;;11.32;;
75698;SDS011;64313;51.018;13.742;2023-03-01T09:19:13;21.83;;;11.35;;
75698;SDS011;64313;51.018;13.742;2023-03-01T09:21:39;25.67;;;12.20;;
75698;SDS011;64313;51.018;13.742;2023-03-01T09:24:05;21.85;;;11.15;;
75698;SDS011;64313;51.018;13.742;2023-03-01T09:26:31;23.00;;;11.82;;
75698;SDS011;64313;51.018;13.742;2023-03-01T09:28:56;27.13;;;11.25;;
75698;SDS011;64313;51.018;13.742;2023-03-01T09:31:22;23.40;;;11.95;;
75698;SDS011;64313;51.018;13.742;2023-03-01T09:33:50;24.27;;;10.50;;
75698;SDS011;64313;51.018;13.742;2023-03-01T09:36:18;23.15;;;11.95;;
75698;SDS011;64313;51.018;13.742;2023-03-01T09:38:47;25.02;;;10.95;;
75698;SDS011;64313;51.018;13.742;2023-03-01T09:41:26;23.15;;;11.48;;
75698;SDS011;64313;51.018;13.742;2023-03-01T09:44:10;22.85;;;11.02;;
75698;SDS011;64313;51.018;13.742;2023-03-01T09:46:52;21.42;;;11.02;;
75698;SDS011;64313;51.018;13.742;2023-03-01T09:49:19;22.40;;;11.43;;
75698;SDS011;64313;51.018;13.742;2023-03-01T09:51:57;24.60;;;11.80;;
75698;SDS011;64313;51.018;13.742;2023-03-01T09:54:26;22.73;;;11.18;;
75698;SDS011;64313;51.018;13.742;2023-03-01T09:56:53;27.10;;;12.18;;
75698;SDS011;64313;51.018;13.742;2023-03-01T09:59:39;25.73;;;12.45;;
75698;SDS011;64313;51.018;13.742;2023-03-01T10:05:13;27.08;;;11.70;;
75698;SDS011;64313;51.018;13.742;2023-03-01T10:07:43;26.70;;;11.52;;
75698;SDS011;64313;51.018;13.742;2023-03-01T10:10:32;23.00;;;11.43;;
75698;SDS011;64313;51.018;13.742;2023-03-01T10:13:04;20.85;;;10.82;;
75698;SDS011;64313;51.018;13.742;2023-03-01T10:15:41;23.13;;;11.95;;
75698;SDS011;64313;51.018;13.742;2023-03-01T10:18:13;21.63;;;11.60;;
75698;SDS011;64313;51.018;13.742;2023-03-01T10:20:54;22.63;;;11.77;;
75698;SDS011;64313;51.018;13.742;2023-03-01T10:23:23;21.83;;;11.10;;
75698;SDS011;64313;51.018;13.742;2023-03-01T10:25:56;25.33;;;12.25;;
75698;SDS011;64313;51.018;13.742;2023-03-01T10:34:14;25.67;;;12.40;;
75698;SDS011;64313;51.018;13.742;2023-03-01T10:36:47;24.75;;;12.93;;
75698;SDS011;64313;51.018;13.742;2023-03-01T10:39:15;26.30;;;12.27;;
75698;SDS011;64313;51.018;13.742;2023-03-01T10:44:43;22.42;;;11.23;;
75698;SDS011;64313;51.018;13.742;2023-03-01T10:47:15;19.80;;;10.60;;
75698;SDS011;64313;51.018;13.742;2023-03-01T10:49:52;21.92;;;10.82;;
75698;SDS011;64313;51.018;13.742;2023-03-01T10:52:23;20.13;;;10.35;;
75698;SDS011;64313;51.018;13.742;2023-03-01T10:54:51;26.67;;;12.85;;
75698;SDS011;64313;51.018;13.742;2023-03-01T10:57:32;22.63;;;12.48;;
75698;SDS011;64313;51.018;13.742;2023-03-01T11:02:47;25.52;;;12.48;;
75698;SDS011;64313;51.018;13.742;2023-03-01T11:05:22;22.65;;;11.82;;
75698;SDS011;64313;51.018;13.742;2023-03-01T11:07:56;23.40;;;11.68;;
75698;SDS011;64313;51.018;13.742;2023-03-01T11:10:24;24.83;;;12.70;;
75698;SDS011;64313;51.018;13.742;2023-03-01T11:12:52;23.70;;;12.00;;
75698;SDS011;64313;51.018;13.742;2023-03-01T11:15:20;23.65;;;11.27;;
75698;SDS011;64313;51.018;13.742;2023-03-01T11:17:47;24.25;;;12.75;;
75698;SDS011;64313;51.018;13.742;2023-03-01T11:22:42;22.83;;;11.27;;
75698;SDS011;64313;51.018;13.742;2023-03-01T11:25:15;21.98;;;10.88;;
75698;SDS011;64313;51.018;13.742;2023-03-01T11:27:44;22.08;;;11.23;;
75698;SDS011;64313;51.018;13.742;2023-03-01T11:30:18;20.60;;;10.80;;
75698;SDS011;64313;51.018;13.742;2023-03-01T11:33:05;22.75;;;11.45;;
75698;SDS011;64313;51.018;13.742;2023-03-01T11:35:34;20.95;;;10.75;;
75698;SDS011;64313;51.018;13.742;2023-03-01T11:38:16;21.27;;;10.40;;
75698;SDS011;64313;51.018;13.742;2023-03-01T11:43:20;20.83;;;10.15;;
75698;SDS011;64313;51.018;13.742;2023-03-01T11:46:05;19.20;;;9.77;;
75698;SDS011;64313;51.018;13.742;2023-03-01T11:48:52;22.80;;;11.15;;
75698;SDS011;64313;51.018;13.742;2023-03-01T11:56:55;18.45;;;8.30;;
75698;SDS011;64313;51.018;13.742;2023-03-01T12:02:35;16.00;;;8.20;;
75698;SDS011;64313;51.018;13.742;2023-03-01T12:05:38;16.35;;;7.85;;
75698;SDS011;64313;51.018;13.742;2023-03-01T12:08:11;17.48;;;8.57;;
75698;SDS011;64313;51.018;13.742;2023-03-01T12:22:13;15.68;;;7.68;;
75698;SDS011;64313;51.018;13.742;2023-03-01T12:30:16;16.05;;;7.72;;
75698;SDS011;64313;51.018;13.742;2023-03-01T12:33:06;15.93;;;7.60;;
75698;SDS011;64313;51.018;13.742;2023-03-01T12:35:57;16.50;;;8.70;;
75698;SDS011;64313;51.018;13.742;2023-03-01T12:38:45;19.17;;;9.45;;
75698;SDS011;64313;51.018;13.742;2023-03-01T12:44:07;18.05;;;8.95;;
75698;SDS011;64313;51.018;13.742;2023-03-01T12:49:37;20.65;;;10.02;;
75698;SDS011;64313;51.018;13.742;2023-03-01T12:52:11;20.55;;;10.85;;
75698;SDS011;64313;51.018;13.742;2023-03-01T12:54:41;20.02;;;10.13;;
75698;SDS011;64313;51.018;13.742;2023-03-01T12:57:11;21.15;;;10.98;;
75698;SDS011;64313;51.018;13.742;2023-03-01T13:00:02;21.58;;;9.45;;
75698;SDS011;64313;51.018;13.742;2023-03-01T13:02:38;20.95;;;10.40;;
75698;SDS011;64313;51.018;13.742;2023-03-01T13:05:29;19.05;;;9.55;;
75698;SDS011;64313;51.018;13.742;2023-03-01T13:08:10;21.50;;;11.65;;
75698;SDS011;64313;51.018;13.742;2023-03-01T13:10:48;21.17;;;11.07;;
75698;SDS011;64313;51.018;13.742;2023-03-01T13:13:21;22.30;;;10.80;;
75698;SDS011;64313;51.018;13.742;2023-03-01T13:15:49;19.13;;;9.55;;
75698;SDS011;64313;51.018;13.742;2023-03-01T13:31:56;20.23;;;10.00;;
75698;SDS011;64313;51.018;13.742;2023-03-01T13:33:56;19.40;;;10.20;;
75698;SDS011;64313;51.018;13.742;2023-03-01T13:46:49;17.20;;;9.00;;
75698;SDS011;64313;51.018;13.742;2023-03-01T13:49:18;16.40;;;8.93;;
75698;SDS011;64313;51.018;13.742;2023-03-01T13:51:46;15.27;;;8.55;;
75698;SDS011;64313;51.018;13.742;2023-03-01T13:54:14;17.40;;;9.07;;
75698;SDS011;64313;51.018;13.742;2023-03-01T13:56:45;20.15;;;9.77;;
75698;SDS011;64313;51.018;13.742;2023-03-01T13:59:18;16.15;;;8.52;;
75698;SDS011;64313;51.018;13.742;2023-03-01T14:01:51;18.08;;;8.75;;
75698;SDS011;64313;51.018;13.742;2023-03-01T14:04:22;20.15;;;9.95;;
75698;SDS011;64313;51.018;13.742;2023-03-01T14:07:08;18.25;;;9.07;;
75698;SDS011;64313;51.018;13.742;2023-03-01T14:09:59;19.13;;;9.27;;
75698;SDS011;64313;51.018;13.742;2023-03-01T14:15:32;17.42;;;9.10;;
75698;SDS011;64313;51.018;13.742;2023-03-01T14:18:04;20.17;;;10.00;;
75698;SDS011;64313;51.018;13.742;2023-03-01T14:20:40;20.05;;;10.93;;
75698;SDS011;64313;51.018;13.742;2023-03-01T14:23:09;20.02;;;10.07;;
75698;SDS011;64313;51.018;13.742;2023-03-01T14:25:37;16.95;;;8.77;;
75698;SDS011;64313;51.018;13.742;2023-03-01T14:30:46;19.40;;;9.40;;
75698;SDS011;64313;51.018;13.742;2023-03-01T14:35:54;19.60;;;9.27;;
75698;SDS011;64313;51.018;13.742;2023-03-01T14:38:34;18.63;;;9.45;;
75698;SDS011;64313;51.018;13.742;2023-03-01T14:41:10;18.10;;;9.02;;
75698;SDS011;64313;51.018;13.742;2023-03-01T14:43:47;18.23;;;9.98;;
75698;SDS011;64313;51.018;13.742;2023-03-01T14:46:39;21.80;;;10.30;;
75698;SDS011;64313;51.018;13.742;2023-03-01T14:49:13;21.38;;;9.70;;
75698;SDS011;64313;51.018;13.742;2023-03-01T14:51:42;18.00;;;9.25;;
75698;SDS011;64313;51.018;13.742;2023-03-01T14:54:23;18.48;;;9.07;;
75698;SDS011;64313;51.018;13.742;2023-03-01T14:56:52;18.92;;;9.07;;
75698;SDS011;64313;51.018;13.742;2023-03-01T14:59:22;17.10;;;9.65;;
75698;SDS011;64313;51.018;13.742;2023-03-01T15:01:49;19.52;;;10.23;;
75698;SDS011;64313;51.018;13.742;2023-03-01T15:04:16;18.80;;;10.13;;
75698;SDS011;64313;51.018;13.742;2023-03-01T15:06:44;20.75;;;10.45;;
75698;SDS011;64313;51.018;13.742;2023-03-01T15:11:38;21.05;;;9.55;;
75698;SDS011;64313;51.018;13.742;2023-03-01T15:16:54;18.50;;;9.70;;
75698;SDS011;64313;51.018;13.742;2023-03-01T15:19:20;17.45;;;9.35;;
75698;SDS011;64313;51.018;13.742;2023-03-01T15:21:48;18.23;;;9.57;;
75698;SDS011;64313;51.018;13.742;2023-03-01T15:24:23;20.67;;;10.77;;
75698;SDS011;64313;51.018;13.742;2023-03-01T15:26:52;19.58;;;10.55;;
75698;SDS011;64313;51.018;13.742;2023-03-01T15:29:27;18.55;;;9.85;;
75698;SDS011;64313;51.018;13.742;2023-03-01T15:31:56;15.95;;;8.68;;
75698;SDS011;64313;51.018;13.742;2023-03-01T15:34:25;17.10;;;9.25;;
75698;SDS011;64313;51.018;13.742;2023-03-01T15:36:53;18.58;;;9.48;;
75698;SDS011;64313;51.018;13.742;2023-03-01T15:42:12;20.38;;;9.50;;
75698;SDS011;64313;51.018;13.742;2023-03-01T15:44:48;17.58;;;8.85;;
75698;SDS011;64313;51.018;13.742;2023-03-01T15:49:53;17.08;;;8.05;;
75698;SDS011;64313;51.018;13.742;2023-03-01T15:52:22;14.15;;;7.68;;
75698;SDS011;64313;51.018;13.742;2023-03-01T15:54:54;15.50;;;8.57;;
75698;SDS011;64313;51.018;13.742;2023-03-01T15:57:21;14.27;;;7.60;;
75698;SDS011;64313;51.018;13.742;2023-03-01T16:02:12;15.47;;;8.20;;
75698;SDS011;64313;51.018;13.742;2023-03-01T16:07:03;14.52;;;7.43;;
75698;SDS011;64313;51.018;13.742;2023-03-01T16:11:54;15.30;;;6.97;;
75698;SDS011;64313;51.018;13.742;2023-03-01T16:16:45;15.48;;;7.78;;
75698;SDS011;64313;51.018;13.742;2023-03-01T16:21:36;16.75;;;7.43;;